sensor_id;sensor_type;location;lat;lon;timestamp;temperature;humidity
6054;DHT22;3055;50.886;14.814;2023-04-21T00:00:23;4.90;99.90
6054;DHT22;3055;50.886;14.814;2023-04-21T00:02:50;4.90;99.90
6054;DHT22;3055;50.886;14.814;2023-04-21T00:05:17;5.00;99.90
6054;DHT22;3055;50.886;14.814;2023-04-21T00:07:44;5.00;99.90
6054;DHT22;3055;50.886;14.814;2023-04-21T00:10:11;5.00;99.90
6054;DHT22;3055;50.886;14.814;2023-04-21T00:12:40;4.90;99.90
6054;DHT22;3055;50.886;14.814;2023-04-21T00:15:08;4.80;99.90
6054;DHT22;3055;50.886;14.814;2023-04-21T00:17:35;4.80;99.90
6054;DHT22;3055;50.886;14.814;2023-04-21T00:20:02;4.80;99.90
6054;DHT22;3055;50.886;14.814;2023-04-21T00:22:31;4.70;99.90
6054;DHT22;3055;50.886;14.814;2023-04-21T00:24:58;4.70;99.90
6054;DHT22;3055;50.886;14.814;2023-04-21T00:27:25;4.70;99.90
6054;DHT22;3055;50.886;14.814;2023-04-21T00:29:54;4.70;99.90
6054;DHT22;3055;50.886;14.814;2023-04-21T00:32:21;4.70;99.90
6054;DHT22;3055;50.886;14.814;2023-04-21T00:34:48;4.70;99.90
6054;DHT22;3055;50.886;14.814;2023-04-21T00:37:15;4.60;99.90
6054;DHT22;3055;50.886;14.814;2023-04-21T00:39:42;4.60;99.90
6054;DHT22;3055;50.886;14.814;2023-04-21T00:42:09;4.60;99.90
6054;DHT22;3055;50.886;14.814;2023-04-21T00:44:36;4.70;99.90
6054;DHT22;3055;50.886;14.814;2023-04-21T00:47:04;4.80;99.90
6054;DHT22;3055;50.886;14.814;2023-04-21T00:49:32;4.80;99.90
6054;DHT22;3055;50.886;14.814;2023-04-21T00:51:59;4.70;99.90
6054;DHT22;3055;50.886;14.814;2023-04-21T00:54:26;4.60;99.90
6054;DHT22;3055;50.886;14.814;2023-04-21T00:56:54;4.50;99.90
6054;DHT22;3055;50.886;14.814;2023-04-21T00:59:23;4.50;99.90
6054;DHT22;3055;50.886;14.814;2023-04-21T01:01:50;4.40;99.90
6054;DHT22;3055;50.886;14.814;2023-04-21T01:04:18;4.50;99.90
6054;DHT22;3055;50.886;14.814;2023-04-21T01:06:45;4.50;99.90
6054;DHT22;3055;50.886;14.814;2023-04-21T01:09:13;4.30;99.90
6054;DHT22;3055;50.886;14.814;2023-04-21T01:11:40;4.30;99.90
6054;DHT22;3055;50.886;14.814;2023-04-21T01:14:07;4.40;99.90
6054;DHT22;3055;50.886;14.814;2023-04-21T01:16:34;4.40;99.90
6054;DHT22;3055;50.886;14.814;2023-04-21T01:19:01;4.30;99.90
6054;DHT22;3055;50.886;14.814;2023-04-21T01:21:38;4.30;99.90
6054;DHT22;3055;50.886;14.814;2023-04-21T01:24:06;4.30;99.90
6054;DHT22;3055;50.886;14.814;2023-04-21T01:26:33;4.20;99.90
6054;DHT22;3055;50.886;14.814;2023-04-21T01:29:00;4.20;99.90
6054;DHT22;3055;50.886;14.814;2023-04-21T01:31:27;4.20;99.90
6054;DHT22;3055;50.886;14.814;2023-04-21T01:33:54;4.20;99.90
6054;DHT22;3055;50.886;14.814;2023-04-21T01:36:22;4.20;99.90
6054;DHT22;3055;50.886;14.814;2023-04-21T01:38:50;4.10;99.90
6054;DHT22;3055;50.886;14.814;2023-04-21T01:41:17;4.20;99.90
6054;DHT22;3055;50.886;14.814;2023-04-21T01:43:44;4.10;99.90
6054;DHT22;3055;50.886;14.814;2023-04-21T01:46:11;4.10;99.90
6054;DHT22;3055;50.886;14.814;2023-04-21T01:48:38;4.00;99.90
6054;DHT22;3055;50.886;14.814;2023-04-21T01:51:05;4.00;99.90
6054;DHT22;3055;50.886;14.814;2023-04-21T01:53:32;4.00;99.90
6054;DHT22;3055;50.886;14.814;2023-04-21T01:56:01;4.00;99.90
6054;DHT22;3055;50.886;14.814;2023-04-21T01:58:28;4.00;99.90
6054;DHT22;3055;50.886;14.814;2023-04-21T02:00:55;4.00;99.90
6054;DHT22;3055;50.886;14.814;2023-04-21T02:03:22;4.00;99.90
6054;DHT22;3055;50.886;14.814;2023-04-21T02:05:49;3.90;99.90
6054;DHT22;3055;50.886;14.814;2023-04-21T02:08:16;3.90;99.90
6054;DHT22;3055;50.886;14.814;2023-04-21T02:10:44;3.90;99.90
6054;DHT22;3055;50.886;14.814;2023-04-21T02:13:12;3.90;99.90
6054;DHT22;3055;50.886;14.814;2023-04-21T02:15:39;3.90;99.90
6054;DHT22;3055;50.886;14.814;2023-04-21T02:18:06;3.90;99.90
6054;DHT22;3055;50.886;14.814;2023-04-21T02:20:33;3.80;99.90
6054;DHT22;3055;50.886;14.814;2023-04-21T02:23:01;3.80;99.90
6054;DHT22;3055;50.886;14.814;2023-04-21T02:25:28;3.90;99.90
6054;DHT22;3055;50.886;14.814;2023-04-21T02:27:55;3.90;99.90
6054;DHT22;3055;50.886;14.814;2023-04-21T02:30:23;3.90;99.90
6054;DHT22;3055;50.886;14.814;2023-04-21T02:32:50;3.90;99.90
6054;DHT22;3055;50.886;14.814;2023-04-21T02:35:17;3.80;99.90
6054;DHT22;3055;50.886;14.814;2023-04-21T02:37:44;3.80;99.90
6054;DHT22;3055;50.886;14.814;2023-04-21T02:40:12;4.00;99.90
6054;DHT22;3055;50.886;14.814;2023-04-21T02:42:39;3.90;99.90
6054;DHT22;3055;50.886;14.814;2023-04-21T02:45:07;3.90;99.90
6054;DHT22;3055;50.886;14.814;2023-04-21T02:47:36;3.80;99.90
6054;DHT22;3055;50.886;14.814;2023-04-21T02:50:03;3.70;99.90
6054;DHT22;3055;50.886;14.814;2023-04-21T02:52:34;3.60;99.90
6054;DHT22;3055;50.886;14.814;2023-04-21T02:55:01;3.60;99.90
6054;DHT22;3055;50.886;14.814;2023-04-21T02:57:28;3.50;99.90
6054;DHT22;3055;50.886;14.814;2023-04-21T02:59:55;3.50;99.90
6054;DHT22;3055;50.886;14.814;2023-04-21T03:02:23;3.50;99.90
6054;DHT22;3055;50.886;14.814;2023-04-21T03:04:51;3.50;99.90
6054;DHT22;3055;50.886;14.814;2023-04-21T03:07:18;3.40;99.90
6054;DHT22;3055;50.886;14.814;2023-04-21T03:09:45;3.40;99.90
6054;DHT22;3055;50.886;14.814;2023-04-21T03:12:12;3.40;99.90
6054;DHT22;3055;50.886;14.814;2023-04-21T03:14:39;3.60;99.90
6054;DHT22;3055;50.886;14.814;2023-04-21T03:17:06;3.50;99.90
6054;DHT22;3055;50.886;14.814;2023-04-21T03:19:34;3.50;99.90
6054;DHT22;3055;50.886;14.814;2023-04-21T03:22:02;3.50;99.90
6054;DHT22;3055;50.886;14.814;2023-04-21T03:24:29;3.40;99.90
6054;DHT22;3055;50.886;14.814;2023-04-21T03:26:56;3.30;99.90
6054;DHT22;3055;50.886;14.814;2023-04-21T03:29:24;3.10;99.90
6054;DHT22;3055;50.886;14.814;2023-04-21T03:31:51;3.20;99.90
6054;DHT22;3055;50.886;14.814;2023-04-21T03:34:18;3.20;99.90
6054;DHT22;3055;50.886;14.814;2023-04-21T03:36:45;3.30;99.90
6054;DHT22;3055;50.886;14.814;2023-04-21T03:39:13;3.20;99.90
6054;DHT22;3055;50.886;14.814;2023-04-21T03:41:40;3.10;99.90
6054;DHT22;3055;50.886;14.814;2023-04-21T03:44:07;3.10;99.90
6054;DHT22;3055;50.886;14.814;2023-04-21T03:46:34;3.20;99.90
6054;DHT22;3055;50.886;14.814;2023-04-21T03:49:02;3.10;99.90
6054;DHT22;3055;50.886;14.814;2023-04-21T03:51:29;3.20;99.90
6054;DHT22;3055;50.886;14.814;2023-04-21T03:53:57;3.30;99.90
6054;DHT22;3055;50.886;14.814;2023-04-21T03:56:25;3.30;99.90
6054;DHT22;3055;50.886;14.814;2023-04-21T03:58:52;3.30;99.90
6054;DHT22;3055;50.886;14.814;2023-04-21T04:01:19;3.20;99.90
6054;DHT22;3055;50.886;14.814;2023-04-21T04:03:47;3.20;99.90
6054;DHT22;3055;50.886;14.814;2023-04-21T04:06:14;3.20;99.90
6054;DHT22;3055;50.886;14.814;2023-04-21T04:08:41;3.20;99.90
6054;DHT22;3055;50.886;14.814;2023-04-21T04:11:08;3.20;99.90
6054;DHT22;3055;50.886;14.814;2023-04-21T04:13:36;3.20;99.90
6054;DHT22;3055;50.886;14.814;2023-04-21T04:16:04;3.30;99.90
6054;DHT22;3055;50.886;14.814;2023-04-21T04:18:31;3.20;99.90
6054;DHT22;3055;50.886;14.814;2023-04-21T04:20:59;3.30;99.90
6054;DHT22;3055;50.886;14.814;2023-04-21T04:23:30;3.40;99.90
6054;DHT22;3055;50.886;14.814;2023-04-21T04:25:58;3.40;99.90
6054;DHT22;3055;50.886;14.814;2023-04-21T04:28:26;3.50;99.90
6054;DHT22;3055;50.886;14.814;2023-04-21T04:30:54;3.50;99.90
6054;DHT22;3055;50.886;14.814;2023-04-21T04:33:21;3.60;99.90
6054;DHT22;3055;50.886;14.814;2023-04-21T04:35:49;3.60;99.90
6054;DHT22;3055;50.886;14.814;2023-04-21T04:38:16;3.70;99.90
6054;DHT22;3055;50.886;14.814;2023-04-21T04:40:43;3.70;99.90
6054;DHT22;3055;50.886;14.814;2023-04-21T04:43:10;3.80;99.90
6054;DHT22;3055;50.886;14.814;2023-04-21T04:45:37;4.00;99.90
6054;DHT22;3055;50.886;14.814;2023-04-21T04:48:06;4.20;99.90
6054;DHT22;3055;50.886;14.814;2023-04-21T04:50:33;4.40;99.90
6054;DHT22;3055;50.886;14.814;2023-04-21T04:53:00;4.60;99.90
6054;DHT22;3055;50.886;14.814;2023-04-21T04:55:27;4.60;99.90
6054;DHT22;3055;50.886;14.814;2023-04-21T04:57:54;4.60;99.90
6054;DHT22;3055;50.886;14.814;2023-04-21T05:00:21;4.60;99.90
6054;DHT22;3055;50.886;14.814;2023-04-21T05:02:48;4.70;99.90
6054;DHT22;3055;50.886;14.814;2023-04-21T05:05:16;4.70;99.90
6054;DHT22;3055;50.886;14.814;2023-04-21T05:07:43;4.70;99.90
6054;DHT22;3055;50.886;14.814;2023-04-21T05:10:11;4.70;99.90
6054;DHT22;3055;50.886;14.814;2023-04-21T05:12:38;4.80;99.90
6054;DHT22;3055;50.886;14.814;2023-04-21T05:15:06;4.90;99.90
6054;DHT22;3055;50.886;14.814;2023-04-21T05:17:33;5.00;99.90
6054;DHT22;3055;50.886;14.814;2023-04-21T05:20:00;5.10;99.90
6054;DHT22;3055;50.886;14.814;2023-04-21T05:22:29;5.20;99.90
6054;DHT22;3055;50.886;14.814;2023-04-21T05:24:56;5.30;99.90
6054;DHT22;3055;50.886;14.814;2023-04-21T05:27:23;5.30;99.90
6054;DHT22;3055;50.886;14.814;2023-04-21T05:29:50;5.40;99.90
6054;DHT22;3055;50.886;14.814;2023-04-21T05:32:19;5.50;99.90
6054;DHT22;3055;50.886;14.814;2023-04-21T05:34:46;5.60;99.90
6054;DHT22;3055;50.886;14.814;2023-04-21T05:37:13;5.70;99.90
6054;DHT22;3055;50.886;14.814;2023-04-21T05:39:42;5.80;99.90
6054;DHT22;3055;50.886;14.814;2023-04-21T05:42:09;5.90;99.90
6054;DHT22;3055;50.886;14.814;2023-04-21T05:44:36;6.00;99.90
6054;DHT22;3055;50.886;14.814;2023-04-21T05:47:03;6.10;99.90
6054;DHT22;3055;50.886;14.814;2023-04-21T05:49:31;6.20;99.90
6054;DHT22;3055;50.886;14.814;2023-04-21T05:51:58;6.30;99.90
6054;DHT22;3055;50.886;14.814;2023-04-21T05:54:25;6.40;99.90
6054;DHT22;3055;50.886;14.814;2023-04-21T05:56:53;6.50;99.90
6054;DHT22;3055;50.886;14.814;2023-04-21T05:59:21;6.60;99.90
6054;DHT22;3055;50.886;14.814;2023-04-21T06:01:48;6.70;99.90
6054;DHT22;3055;50.886;14.814;2023-04-21T06:04:15;6.80;99.90
6054;DHT22;3055;50.886;14.814;2023-04-21T06:06:42;6.90;99.90
6054;DHT22;3055;50.886;14.814;2023-04-21T06:09:09;7.00;99.90
6054;DHT22;3055;50.886;14.814;2023-04-21T06:11:40;7.20;99.90
6054;DHT22;3055;50.886;14.814;2023-04-21T06:14:08;7.40;99.90
6054;DHT22;3055;50.886;14.814;2023-04-21T06:16:36;7.60;99.90
6054;DHT22;3055;50.886;14.814;2023-04-21T06:19:03;7.80;99.90
6054;DHT22;3055;50.886;14.814;2023-04-21T06:21:30;7.90;99.90
6054;DHT22;3055;50.886;14.814;2023-04-21T06:23:57;8.20;99.90
6054;DHT22;3055;50.886;14.814;2023-04-21T06:26:24;8.40;99.90
6054;DHT22;3055;50.886;14.814;2023-04-21T06:28:51;8.60;99.90
6054;DHT22;3055;50.886;14.814;2023-04-21T06:31:20;8.80;99.90
6054;DHT22;3055;50.886;14.814;2023-04-21T06:33:47;9.10;99.90
6054;DHT22;3055;50.886;14.814;2023-04-21T06:36:14;9.40;57.40
6054;DHT22;3055;50.886;14.814;2023-04-21T06:38:41;9.60;26.60
6054;DHT22;3055;50.886;14.814;2023-04-21T06:41:08;9.70;47.80
6054;DHT22;3055;50.886;14.814;2023-04-21T06:43:35;9.90;14.70
6054;DHT22;3055;50.886;14.814;2023-04-21T06:46:02;10.10;2.90
6054;DHT22;3055;50.886;14.814;2023-04-21T06:48:31;10.30;17.50
6054;DHT22;3055;50.886;14.814;2023-04-21T06:50:58;10.50;1.00
6054;DHT22;3055;50.886;14.814;2023-04-21T06:53:27;10.60;1.00
6054;DHT22;3055;50.886;14.814;2023-04-21T06:55:54;10.80;1.00
6054;DHT22;3055;50.886;14.814;2023-04-21T06:58:21;11.00;1.00
6054;DHT22;3055;50.886;14.814;2023-04-21T07:00:48;11.10;1.00
6054;DHT22;3055;50.886;14.814;2023-04-21T07:03:15;11.30;1.00
6054;DHT22;3055;50.886;14.814;2023-04-21T07:05:43;11.50;1.00
6054;DHT22;3055;50.886;14.814;2023-04-21T07:08:11;11.80;1.00
6054;DHT22;3055;50.886;14.814;2023-04-21T07:10:38;12.00;1.00
6054;DHT22;3055;50.886;14.814;2023-04-21T07:13:06;12.10;1.00
6054;DHT22;3055;50.886;14.814;2023-04-21T07:15:33;12.30;1.00
6054;DHT22;3055;50.886;14.814;2023-04-21T07:18:00;12.40;1.00
6054;DHT22;3055;50.886;14.814;2023-04-21T07:20:27;12.40;99.90
6054;DHT22;3055;50.886;14.814;2023-04-21T07:22:55;12.60;1.00
6054;DHT22;3055;50.886;14.814;2023-04-21T07:25:22;12.80;1.00
6054;DHT22;3055;50.886;14.814;2023-04-21T07:27:49;12.90;99.90
6054;DHT22;3055;50.886;14.814;2023-04-21T07:30:16;13.10;99.90
6054;DHT22;3055;50.886;14.814;2023-04-21T07:32:44;13.10;1.00
6054;DHT22;3055;50.886;14.814;2023-04-21T07:35:11;13.20;1.00
6054;DHT22;3055;50.886;14.814;2023-04-21T07:37:38;13.40;99.90
6054;DHT22;3055;50.886;14.814;2023-04-21T07:40:08;13.60;99.90
6054;DHT22;3055;50.886;14.814;2023-04-21T07:42:35;13.70;99.90
6054;DHT22;3055;50.886;14.814;2023-04-21T07:45:02;13.90;99.90
6054;DHT22;3055;50.886;14.814;2023-04-21T07:47:29;14.10;99.90
6054;DHT22;3055;50.886;14.814;2023-04-21T07:49:57;14.30;99.90
6054;DHT22;3055;50.886;14.814;2023-04-21T07:52:24;14.50;99.90
6054;DHT22;3055;50.886;14.814;2023-04-21T07:54:51;14.70;99.90
6054;DHT22;3055;50.886;14.814;2023-04-21T07:57:19;14.80;99.90
6054;DHT22;3055;50.886;14.814;2023-04-21T07:59:46;14.90;99.90
6054;DHT22;3055;50.886;14.814;2023-04-21T08:02:13;15.10;99.90
6054;DHT22;3055;50.886;14.814;2023-04-21T08:04:40;15.30;99.90
6054;DHT22;3055;50.886;14.814;2023-04-21T08:07:07;15.60;99.90
6054;DHT22;3055;50.886;14.814;2023-04-21T08:09:35;15.80;99.90
6054;DHT22;3055;50.886;14.814;2023-04-21T08:12:02;15.90;99.90
6054;DHT22;3055;50.886;14.814;2023-04-21T08:14:30;16.10;99.90
6054;DHT22;3055;50.886;14.814;2023-04-21T08:16:58;16.30;99.90
6054;DHT22;3055;50.886;14.814;2023-04-21T08:19:25;16.40;99.90
6054;DHT22;3055;50.886;14.814;2023-04-21T08:21:52;16.60;99.90
6054;DHT22;3055;50.886;14.814;2023-04-21T08:24:19;16.60;79.30
6054;DHT22;3055;50.886;14.814;2023-04-21T08:26:46;16.60;63.10
6054;DHT22;3055;50.886;14.814;2023-04-21T08:29:13;16.80;62.20
6054;DHT22;3055;50.886;14.814;2023-04-21T08:31:42;16.80;37.80
6054;DHT22;3055;50.886;14.814;2023-04-21T08:34:09;16.90;24.50
6054;DHT22;3055;50.886;14.814;2023-04-21T08:36:36;17.10;19.70
6054;DHT22;3055;50.886;14.814;2023-04-21T08:39:03;17.40;12.70
6054;DHT22;3055;50.886;14.814;2023-04-21T08:41:30;17.60;1.00
6054;DHT22;3055;50.886;14.814;2023-04-21T08:43:57;17.70;1.00
6054;DHT22;3055;50.886;14.814;2023-04-21T08:46:25;17.90;1.00
6054;DHT22;3055;50.886;14.814;2023-04-21T08:48:55;18.10;1.00
6054;DHT22;3055;50.886;14.814;2023-04-21T08:51:26;18.30;1.00
6054;DHT22;3055;50.886;14.814;2023-04-21T08:53:54;18.50;1.00
6054;DHT22;3055;50.886;14.814;2023-04-21T08:56:23;18.70;1.00
6054;DHT22;3055;50.886;14.814;2023-04-21T08:58:50;18.80;1.00
6054;DHT22;3055;50.886;14.814;2023-04-21T09:01:18;18.90;1.00
6054;DHT22;3055;50.886;14.814;2023-04-21T09:03:45;19.00;1.00
6054;DHT22;3055;50.886;14.814;2023-04-21T09:06:13;19.10;1.00
6054;DHT22;3055;50.886;14.814;2023-04-21T09:08:42;19.20;1.00
6054;DHT22;3055;50.886;14.814;2023-04-21T09:11:13;19.30;1.00
6054;DHT22;3055;50.886;14.814;2023-04-21T09:13:42;19.40;1.00
6054;DHT22;3055;50.886;14.814;2023-04-21T09:16:16;19.40;1.00
6054;DHT22;3055;50.886;14.814;2023-04-21T09:18:44;19.10;1.00
6054;DHT22;3055;50.886;14.814;2023-04-21T09:21:14;18.90;1.00
6054;DHT22;3055;50.886;14.814;2023-04-21T09:23:42;19.00;1.00
6054;DHT22;3055;50.886;14.814;2023-04-21T09:26:10;19.00;1.00
6054;DHT22;3055;50.886;14.814;2023-04-21T09:28:40;19.10;1.00
6054;DHT22;3055;50.886;14.814;2023-04-21T09:31:12;19.20;1.00
6054;DHT22;3055;50.886;14.814;2023-04-21T09:33:44;19.30;1.00
6054;DHT22;3055;50.886;14.814;2023-04-21T09:36:19;19.40;1.00
6054;DHT22;3055;50.886;14.814;2023-04-21T09:38:54;19.30;1.00
6054;DHT22;3055;50.886;14.814;2023-04-21T09:41:22;19.40;1.00
6054;DHT22;3055;50.886;14.814;2023-04-21T09:43:50;19.50;1.00
6054;DHT22;3055;50.886;14.814;2023-04-21T09:46:17;19.50;1.00
6054;DHT22;3055;50.886;14.814;2023-04-21T09:48:45;19.50;1.00
6054;DHT22;3055;50.886;14.814;2023-04-21T09:51:14;19.60;1.00
6054;DHT22;3055;50.886;14.814;2023-04-21T09:53:44;19.70;1.00
6054;DHT22;3055;50.886;14.814;2023-04-21T09:56:12;19.60;1.00
6054;DHT22;3055;50.886;14.814;2023-04-21T09:58:43;19.50;1.00
6054;DHT22;3055;50.886;14.814;2023-04-21T10:01:11;19.40;1.00
6054;DHT22;3055;50.886;14.814;2023-04-21T10:03:42;19.50;1.00
6054;DHT22;3055;50.886;14.814;2023-04-21T10:06:11;19.70;1.00
6054;DHT22;3055;50.886;14.814;2023-04-21T10:08:39;19.90;1.00
6054;DHT22;3055;50.886;14.814;2023-04-21T10:11:08;20.20;1.00
6054;DHT22;3055;50.886;14.814;2023-04-21T10:13:37;20.20;1.00
6054;DHT22;3055;50.886;14.814;2023-04-21T10:16:05;20.10;1.00
6054;DHT22;3055;50.886;14.814;2023-04-21T10:18:35;20.10;1.00
6054;DHT22;3055;50.886;14.814;2023-04-21T10:21:06;20.10;1.00
6054;DHT22;3055;50.886;14.814;2023-04-21T10:23:37;20.40;1.00
6054;DHT22;3055;50.886;14.814;2023-04-21T10:26:09;20.40;1.00
6054;DHT22;3055;50.886;14.814;2023-04-21T10:28:48;20.50;1.00
6054;DHT22;3055;50.886;14.814;2023-04-21T10:31:31;20.40;1.00
6054;DHT22;3055;50.886;14.814;2023-04-21T10:34:17;20.50;1.00
6054;DHT22;3055;50.886;14.814;2023-04-21T10:37:17;20.50;1.00
6054;DHT22;3055;50.886;14.814;2023-04-21T10:39:51;20.60;1.00
6054;DHT22;3055;50.886;14.814;2023-04-21T10:42:22;21.00;1.00
6054;DHT22;3055;50.886;14.814;2023-04-21T10:45:08;21.40;1.00
6054;DHT22;3055;50.886;14.814;2023-04-21T10:47:40;21.60;1.00
6054;DHT22;3055;50.886;14.814;2023-04-21T10:50:19;21.80;1.00
6054;DHT22;3055;50.886;14.814;2023-04-21T10:52:53;21.50;1.00
6054;DHT22;3055;50.886;14.814;2023-04-21T10:55:21;21.10;1.00
6054;DHT22;3055;50.886;14.814;2023-04-21T10:57:49;20.90;1.00
6054;DHT22;3055;50.886;14.814;2023-04-21T11:00:18;21.10;1.00
6054;DHT22;3055;50.886;14.814;2023-04-21T11:02:53;21.20;1.00
6054;DHT22;3055;50.886;14.814;2023-04-21T11:05:30;21.30;1.00
6054;DHT22;3055;50.886;14.814;2023-04-21T11:08:07;21.20;1.00
6054;DHT22;3055;50.886;14.814;2023-04-21T11:10:48;21.20;1.00
6054;DHT22;3055;50.886;14.814;2023-04-21T11:13:16;21.30;1.00
6054;DHT22;3055;50.886;14.814;2023-04-21T11:15:55;21.30;1.00
6054;DHT22;3055;50.886;14.814;2023-04-21T11:18:32;21.60;1.00
6054;DHT22;3055;50.886;14.814;2023-04-21T11:21:06;22.10;1.00
6054;DHT22;3055;50.886;14.814;2023-04-21T11:23:34;22.50;1.00
6054;DHT22;3055;50.886;14.814;2023-04-21T11:26:01;22.40;1.00
6054;DHT22;3055;50.886;14.814;2023-04-21T11:28:29;22.10;1.00
6054;DHT22;3055;50.886;14.814;2023-04-21T11:30:56;21.70;1.00
6054;DHT22;3055;50.886;14.814;2023-04-21T11:33:27;21.40;1.00
6054;DHT22;3055;50.886;14.814;2023-04-21T11:35:54;21.40;1.00
6054;DHT22;3055;50.886;14.814;2023-04-21T11:38:23;21.40;1.00
6054;DHT22;3055;50.886;14.814;2023-04-21T11:40:50;21.10;1.00
6054;DHT22;3055;50.886;14.814;2023-04-21T11:43:20;21.00;1.00
6054;DHT22;3055;50.886;14.814;2023-04-21T11:45:49;21.00;1.00
6054;DHT22;3055;50.886;14.814;2023-04-21T11:48:17;20.90;1.00
6054;DHT22;3055;50.886;14.814;2023-04-21T11:50:49;21.00;1.00
6054;DHT22;3055;50.886;14.814;2023-04-21T11:53:16;21.30;1.00
6054;DHT22;3055;50.886;14.814;2023-04-21T11:55:44;21.70;1.00
6054;DHT22;3055;50.886;14.814;2023-04-21T11:58:12;21.90;1.00
6054;DHT22;3055;50.886;14.814;2023-04-21T12:00:43;22.00;1.00
6054;DHT22;3055;50.886;14.814;2023-04-21T12:03:14;21.80;1.00
6054;DHT22;3055;50.886;14.814;2023-04-21T12:05:41;21.60;1.00
6054;DHT22;3055;50.886;14.814;2023-04-21T12:08:13;21.70;1.00
6054;DHT22;3055;50.886;14.814;2023-04-21T12:10:44;21.60;1.00
6054;DHT22;3055;50.886;14.814;2023-04-21T12:13:11;21.50;1.00
6054;DHT22;3055;50.886;14.814;2023-04-21T12:15:38;21.50;1.00
6054;DHT22;3055;50.886;14.814;2023-04-21T12:18:13;21.90;1.00
6054;DHT22;3055;50.886;14.814;2023-04-21T12:20:48;22.30;1.00
6054;DHT22;3055;50.886;14.814;2023-04-21T12:23:16;22.70;1.00
6054;DHT22;3055;50.886;14.814;2023-04-21T12:25:43;22.90;1.00
6054;DHT22;3055;50.886;14.814;2023-04-21T12:28:13;22.70;1.00
6054;DHT22;3055;50.886;14.814;2023-04-21T12:30:41;22.40;1.00
6054;DHT22;3055;50.886;14.814;2023-04-21T12:33:08;22.30;1.00
6054;DHT22;3055;50.886;14.814;2023-04-21T12:35:36;22.60;1.00
6054;DHT22;3055;50.886;14.814;2023-04-21T12:38:03;22.80;1.00
6054;DHT22;3055;50.886;14.814;2023-04-21T12:40:31;23.00;1.00
6054;DHT22;3055;50.886;14.814;2023-04-21T12:42:58;23.30;1.00
6054;DHT22;3055;50.886;14.814;2023-04-21T12:45:25;23.30;1.00
6054;DHT22;3055;50.886;14.814;2023-04-21T12:47:52;23.00;1.00
6054;DHT22;3055;50.886;14.814;2023-04-21T12:50:20;22.50;1.00
6054;DHT22;3055;50.886;14.814;2023-04-21T12:52:48;22.40;1.00
6054;DHT22;3055;50.886;14.814;2023-04-21T12:55:19;22.60;1.00
6054;DHT22;3055;50.886;14.814;2023-04-21T12:57:46;22.40;1.00
6054;DHT22;3055;50.886;14.814;2023-04-21T13:00:14;22.40;1.00
6054;DHT22;3055;50.886;14.814;2023-04-21T13:02:41;22.40;1.00
6054;DHT22;3055;50.886;14.814;2023-04-21T13:05:09;22.60;1.00
6054;DHT22;3055;50.886;14.814;2023-04-21T13:07:38;22.80;1.00
6054;DHT22;3055;50.886;14.814;2023-04-21T13:10:08;23.00;1.00
6054;DHT22;3055;50.886;14.814;2023-04-21T13:12:35;23.10;1.00
6054;DHT22;3055;50.886;14.814;2023-04-21T13:15:03;23.60;1.00
6054;DHT22;3055;50.886;14.814;2023-04-21T13:17:30;24.20;1.00
6054;DHT22;3055;50.886;14.814;2023-04-21T13:19:58;24.00;1.00
6054;DHT22;3055;50.886;14.814;2023-04-21T13:22:25;23.90;1.00
6054;DHT22;3055;50.886;14.814;2023-04-21T13:24:52;23.80;1.00
6054;DHT22;3055;50.886;14.814;2023-04-21T13:27:21;24.10;1.00
6054;DHT22;3055;50.886;14.814;2023-04-21T13:29:48;24.80;1.00
6054;DHT22;3055;50.886;14.814;2023-04-21T13:32:15;25.40;1.00
6054;DHT22;3055;50.886;14.814;2023-04-21T13:34:42;25.40;1.00
6054;DHT22;3055;50.886;14.814;2023-04-21T13:37:09;25.70;1.00
6054;DHT22;3055;50.886;14.814;2023-04-21T13:39:40;26.10;1.00
6054;DHT22;3055;50.886;14.814;2023-04-21T13:42:08;26.30;1.00
6054;DHT22;3055;50.886;14.814;2023-04-21T13:44:36;26.50;1.00
6054;DHT22;3055;50.886;14.814;2023-04-21T13:47:03;26.50;1.00
6054;DHT22;3055;50.886;14.814;2023-04-21T13:49:30;25.30;1.00
6054;DHT22;3055;50.886;14.814;2023-04-21T13:51:57;24.30;1.00
6054;DHT22;3055;50.886;14.814;2023-04-21T13:54:24;23.80;1.00
6054;DHT22;3055;50.886;14.814;2023-04-21T13:56:51;23.40;1.00
6054;DHT22;3055;50.886;14.814;2023-04-21T13:59:19;23.10;1.00
6054;DHT22;3055;50.886;14.814;2023-04-21T14:01:47;22.80;1.00
6054;DHT22;3055;50.886;14.814;2023-04-21T14:04:14;22.40;1.00
6054;DHT22;3055;50.886;14.814;2023-04-21T14:06:41;22.10;1.00
6054;DHT22;3055;50.886;14.814;2023-04-21T14:09:09;22.10;1.00
6054;DHT22;3055;50.886;14.814;2023-04-21T14:11:36;22.00;1.00
6054;DHT22;3055;50.886;14.814;2023-04-21T14:14:04;21.80;1.00
6054;DHT22;3055;50.886;14.814;2023-04-21T14:16:31;21.70;1.00
6054;DHT22;3055;50.886;14.814;2023-04-21T14:19:00;21.60;1.00
6054;DHT22;3055;50.886;14.814;2023-04-21T14:21:27;21.50;1.00
6054;DHT22;3055;50.886;14.814;2023-04-21T14:23:54;21.50;1.00
6054;DHT22;3055;50.886;14.814;2023-04-21T14:26:21;21.50;1.00
6054;DHT22;3055;50.886;14.814;2023-04-21T14:28:49;21.30;1.00
6054;DHT22;3055;50.886;14.814;2023-04-21T14:31:16;21.00;1.00
6054;DHT22;3055;50.886;14.814;2023-04-21T14:33:43;20.90;1.00
6054;DHT22;3055;50.886;14.814;2023-04-21T14:36:11;20.90;1.00
6054;DHT22;3055;50.886;14.814;2023-04-21T14:38:38;20.60;1.00
6054;DHT22;3055;50.886;14.814;2023-04-21T14:41:07;20.60;1.00
6054;DHT22;3055;50.886;14.814;2023-04-21T14:43:34;20.90;1.00
6054;DHT22;3055;50.886;14.814;2023-04-21T14:46:01;20.90;1.00
6054;DHT22;3055;50.886;14.814;2023-04-21T14:48:29;21.00;1.00
6054;DHT22;3055;50.886;14.814;2023-04-21T14:50:56;20.80;1.00
6054;DHT22;3055;50.886;14.814;2023-04-21T14:53:24;20.80;1.00
6054;DHT22;3055;50.886;14.814;2023-04-21T14:55:51;20.80;1.00
6054;DHT22;3055;50.886;14.814;2023-04-21T14:58:18;20.80;1.00
6054;DHT22;3055;50.886;14.814;2023-04-21T15:00:45;20.80;1.00
6054;DHT22;3055;50.886;14.814;2023-04-21T15:03:12;20.70;1.00
6054;DHT22;3055;50.886;14.814;2023-04-21T15:05:40;20.50;1.00
6054;DHT22;3055;50.886;14.814;2023-04-21T15:08:07;20.30;1.00
6054;DHT22;3055;50.886;14.814;2023-04-21T15:10:36;20.20;1.00
6054;DHT22;3055;50.886;14.814;2023-04-21T15:13:03;20.10;1.00
6054;DHT22;3055;50.886;14.814;2023-04-21T15:15:30;20.00;1.00
6054;DHT22;3055;50.886;14.814;2023-04-21T15:17:57;20.00;1.00
6054;DHT22;3055;50.886;14.814;2023-04-21T15:20:24;19.90;1.00
6054;DHT22;3055;50.886;14.814;2023-04-21T15:22:52;19.80;1.00
6054;DHT22;3055;50.886;14.814;2023-04-21T15:25:19;19.70;1.00
6054;DHT22;3055;50.886;14.814;2023-04-21T15:27:47;19.60;1.00
6054;DHT22;3055;50.886;14.814;2023-04-21T15:30:15;19.50;1.00
6054;DHT22;3055;50.886;14.814;2023-04-21T15:32:42;19.30;1.00
6054;DHT22;3055;50.886;14.814;2023-04-21T15:35:09;19.30;1.00
6054;DHT22;3055;50.886;14.814;2023-04-21T15:37:36;19.20;1.00
6054;DHT22;3055;50.886;14.814;2023-04-21T15:40:04;19.30;1.00
6054;DHT22;3055;50.886;14.814;2023-04-21T15:42:31;19.40;1.00
6054;DHT22;3055;50.886;14.814;2023-04-21T15:45:00;19.50;1.00
6054;DHT22;3055;50.886;14.814;2023-04-21T15:47:28;20.00;1.00
6054;DHT22;3055;50.886;14.814;2023-04-21T15:49:56;20.70;1.00
6054;DHT22;3055;50.886;14.814;2023-04-21T15:52:23;21.70;1.00
6054;DHT22;3055;50.886;14.814;2023-04-21T15:54:50;22.60;1.00
6054;DHT22;3055;50.886;14.814;2023-04-21T15:57:17;23.00;1.00
6054;DHT22;3055;50.886;14.814;2023-04-21T15:59:44;23.70;1.00
6054;DHT22;3055;50.886;14.814;2023-04-21T16:02:13;23.80;1.00
6054;DHT22;3055;50.886;14.814;2023-04-21T16:04:40;23.60;1.00